Time;durP1;ratioP1;P1;durP2;ratioP2;P2;SDS_P1;SDS_P2;PMS_P1;PMS_P2;Temp;Humidity;BMP_temperature;BMP_pressure;BME280_temperature;BME280_humidity;BME280_pressure;Samples;Min_cycle;Max_cycle;Signal;HPM_P1;HPM_P2
2022/11/04 00:01:20;;;;;;;13.85;7.47;;;;;;;1.79;66.51;99638.16;4915180;29;20072;-92
2022/11/04 00:03:46;;;;;;;14.35;7.18;;;;;;;1.86;67.02;99636.09;4899083;29;20051;-91
2022/11/04 00:06:12;;;;;;;12.90;7.10;;;;;;;1.65;66.90;99613.41;4905455;29;20509;-92
2022/11/04 00:08:39;;;;;;;16.38;7.50;;;;;;;1.74;67.97;99638.88;4902570;29;20051;-93
2022/11/04 00:13:50;;;;;;;18.52;7.53;;;;;;;1.85;68.58;99661.41;4885120;29;20058;-96
2022/11/04 00:19:01;;;;;;;11.90;7.00;;;;;;;1.88;67.81;99642.06;4915709;29;20123;-93
2022/11/04 00:29:44;;;;;;;15.95;8.35;;;;;;;1.99;68.19;99660.03;4958207;28;20038;-92
2022/11/04 00:34:57;;;;;;;15.88;6.95;;;;;;;1.88;67.88;99634.78;4965465;28;20038;-91
2022/11/04 00:37:24;;;;;;;17.27;7.97;;;;;;;2.04;68.57;99635.81;4932149;28;20039;-93
2022/11/04 00:39:50;;;;;;;13.52;6.88;;;;;;;1.94;67.38;99606.00;4960114;28;20506;-93
2022/11/04 00:42:16;;;;;;;13.15;6.82;;;;;;;2.01;67.80;99606.66;4952060;28;20093;-94
2022/11/04 00:44:42;;;;;;;13.25;7.00;;;;;;;1.90;67.36;99607.59;4956926;28;20055;-94
2022/11/04 00:47:08;;;;;;;11.95;6.30;;;;;;;1.97;67.09;99604.72;4941339;28;20046;-93
2022/11/04 00:49:34;;;;;;;11.27;6.93;;;;;;;2.21;66.90;99624.97;4925336;28;20540;-92
2022/11/04 00:52:01;;;;;;;14.85;7.55;;;;;;;2.09;67.26;99606.22;4926408;28;20073;-93
2022/11/04 00:54:27;;;;;;;10.90;6.75;;;;;;;2.50;66.69;99651.78;4926132;28;20046;-93
2022/11/04 00:56:53;;;;;;;12.75;6.72;;;;;;;2.40;66.31;99616.59;4957908;28;20043;-93
2022/11/04 00:59:20;;;;;;;10.27;6.25;;;;;;;2.70;66.05;99675.50;4942113;28;20507;-93
2022/11/04 01:01:46;;;;;;;14.13;7.22;;;;;;;2.43;66.16;99624.16;4928233;28;20051;-93
2022/11/04 01:04:12;;;;;;;13.25;7.22;;;;;;;2.23;65.82;99593.19;4966162;28;20051;-92
2022/11/04 01:06:38;;;;;;;13.13;7.03;;;;;;;2.25;65.85;99585.66;4934814;28;20039;-92
2022/11/04 01:09:07;;;;;;;13.35;7.10;;;;;;;2.66;65.88;99669.78;4952665;28;20097;-92
2022/11/04 01:11:34;;;;;;;18.08;7.03;;;;;;;2.30;65.88;99603.78;4961475;28;20041;-89
2022/11/04 01:14:00;;;;;;;17.17;7.25;;;;;;;2.62;66.39;99665.97;4946562;28;20538;-92
2022/11/04 01:16:27;;;;;;;14.48;7.75;;;;;;;2.31;65.90;99613.50;4951218;28;20034;-93
2022/11/04 01:18:54;;;;;;;16.13;6.88;;;;;;;2.13;66.88;99611.13;4949576;28;20069;-92
2022/11/04 01:21:20;;;;;;;10.68;6.78;;;;;;;2.02;66.89;99604.75;4946417;28;20088;-94
2022/11/04 01:23:47;;;;;;;14.55;7.85;;;;;;;2.06;66.52;99611.31;4945423;28;20038;-94
2022/11/04 01:26:18;;;;;;;13.25;7.13;;;;;;;2.15;66.90;99635.94;4937099;29;20094;-92
2022/11/04 01:28:45;;;;;;;20.75;7.68;;;;;;;2.07;67.75;99632.63;4936892;28;20054;-92
2022/11/04 01:31:14;;;;;;;15.33;8.20;;;;;;;2.15;67.69;99627.84;4939065;28;20062;-93
2022/11/04 01:33:41;;;;;;;18.23;8.63;;;;;;;1.88;67.57;99583.56;4937742;29;20291;-92
2022/11/04 01:36:09;;;;;;;14.98;7.43;;;;;;;2.01;67.67;99585.06;4922609;29;20039;-92
2022/11/04 01:38:36;;;;;;;12.63;7.50;;;;;;;2.51;67.39;99670.41;4939546;29;20046;-93
2022/11/04 01:41:03;;;;;;;15.93;8.70;;;;;;;2.19;66.94;99592.06;4956038;28;20049;-94
2022/11/04 01:43:53;;;;;;;14.95;7.63;;;;;;;2.43;65.72;99618.78;4961836;28;20057;-95
2022/11/04 01:46:37;;;;;;;14.85;7.88;;;;;;;2.64;66.25;99653.00;4927841;29;20039;-96
2022/11/04 01:49:21;;;;;;;17.88;8.32;;;;;;;2.29;66.46;99588.69;4926541;29;20556;-93
2022/11/04 01:51:49;;;;;;;14.23;8.10;;;;;;;2.59;65.80;99644.88;4926262;29;20074;-94
2022/11/04 01:54:17;;;;;;;18.77;8.63;;;;;;;2.49;66.46;99617.78;4942193;29;20097;-94
2022/11/04 01:56:43;;;;;;;;;;;;;;;2.85;66.33;99664.03;4954680;28;20050;-91
2022/11/04 01:59:18;;;;;;;15.10;7.65;;;;;;;2.20;65.38;99593.69;4932560;29;20373;-95
2022/11/04 02:01:45;;;;;;;19.45;8.50;;;;;;;2.43;65.89;99622.28;4926115;29;20424;-94
2022/11/04 02:04:24;;;;;;;13.10;7.90;;;;;;;2.64;65.79;99630.59;4929526;28;20038;-95
2022/11/04 02:06:57;;;;;;;13.60;8.30;;;;;;;2.58;65.20;99621.63;4957376;28;20042;-90
2022/11/04 02:09:26;;;;;;;15.45;8.23;;;;;;;2.71;65.02;99645.53;4976634;28;20038;-92
2022/11/04 02:14:39;;;;;;;16.00;7.93;;;;;;;2.41;65.13;99589.34;4960761;28;20058;-94
2022/11/04 02:17:17;;;;;;;14.13;7.70;;;;;;;2.63;65.18;99623.59;4946662;29;20572;-93
2022/11/04 02:19:52;;;;;;;16.50;8.05;;;;;;;3.01;65.00;99680.19;4923477;29;20520;-93
2022/11/04 02:22:43;;;;;;;15.00;7.38;;;;;;;3.03;64.56;99672.63;4907657;29;20514;-93
2022/11/04 02:25:28;;;;;;;14.23;7.32;;;;;;;2.88;64.65;99669.78;4908869;29;20047;-91
2022/11/04 02:28:16;;;;;;;12.50;7.07;;;;;;;2.50;65.04;99592.41;4969849;28;20050;-94
2022/11/04 02:31:00;;;;;;;16.50;7.60;;;;;;;2.82;64.59;99646.47;4963567;28;20102;-94
2022/11/04 02:33:32;;;;;;;18.33;7.22;;;;;;;3.05;64.21;99662.38;4968131;28;20034;-94
2022/11/04 02:36:12;;;;;;;14.25;7.60;;;;;;;2.63;64.52;99592.00;4968089;28;20047;-94
2022/11/04 02:38:50;;;;;;;14.27;7.85;;;;;;;2.77;64.47;99616.72;4953338;28;20066;-93
2022/11/04 02:41:39;;;;;;;17.20;8.00;;;;;;;2.46;64.80;99592.09;4984079;28;20069;-93
2022/11/04 02:44:29;;;;;;;18.63;7.57;;;;;;;2.95;64.51;99654.19;4968474;28;20035;-94
2022/11/04 02:47:06;;;;;;;18.98;8.25;;;;;;;2.99;63.73;99652.59;4984098;28;20034;-93
2022/11/04 02:49:32;;;;;;;15.40;8.90;;;;;;;2.89;64.00;99655.19;4952024;28;20031;-93
2022/11/04 02:52:10;;;;;;;13.80;8.25;;;;;;;2.79;64.15;99633.50;4967443;28;20062;-93
2022/11/04 02:55:02;;;;;;;13.15;8.07;;;;;;;2.62;63.62;99613.88;4957863;28;20037;-92
2022/11/04 02:57:33;;;;;;;14.63;8.18;;;;;;;2.78;63.87;99642.63;4985537;28;20042;-93
2022/11/04 03:00:07;;;;;;;21.15;7.78;;;;;;;2.95;63.38;99654.19;4951684;28;20031;-93
2022/11/04 03:03:02;;;;;;;12.70;7.05;;;;;;;2.98;62.96;99653.69;4967477;28;20035;-93
2022/11/04 03:05:36;;;;;;;14.05;7.65;;;;;;;2.57;62.88;99595.72;4965003;28;20049;-93
2022/11/04 03:08:08;;;;;;;14.95;7.10;;;;;;;2.58;62.67;99614.38;4951424;28;20029;-94
2022/11/04 03:10:49;;;;;;;13.23;6.90;;;;;;;2.28;63.21;99587.84;4968424;28;20029;-93
2022/11/04 03:13:27;;;;;;;15.13;6.80;;;;;;;2.30;62.59;99601.91;4983536;28;20074;-93
2022/11/04 03:15:58;;;;;;;11.50;7.40;;;;;;;2.40;62.49;99586.91;4954670;28;20058;-92
2022/11/04 03:18:47;;;;;;;18.00;7.57;;;;;;;2.75;61.71;99621.56;4965803;28;20045;-94
2022/11/04 03:21:15;;;;;;;14.30;7.40;;;;;;;2.62;61.35;99611.19;4965914;28;20049;-92
2022/11/04 03:23:42;;;;;;;13.13;7.53;;;;;;;2.59;62.17;99625.97;4980954;28;20098;-93
2022/11/04 03:26:31;;;;;;;12.52;7.65;;;;;;;2.16;62.97;99599.84;4980118;28;20061;-93
2022/11/04 03:29:17;;;;;;;16.23;7.70;;;;;;;2.32;63.73;99620.53;4981325;28;20066;-93
2022/11/04 03:31:57;;;;;;;17.08;9.30;;;;;;;2.30;63.57;99611.88;4976959;28;20042;-92
2022/11/04 03:34:23;;;;;;;14.40;7.93;;;;;;;2.41;62.92;99632.50;4945066;28;20049;-95
2022/11/04 03:36:49;;;;;;;13.52;8.05;;;;;;;2.16;62.48;99570.19;4946712;28;20034;-94
2022/11/04 03:39:17;;;;;;;16.85;8.85;;;;;;;2.61;62.66;99618.44;5009620;28;20066;-95
2022/11/04 03:41:57;;;;;;;18.73;8.60;;;;;;;2.46;62.54;99604.78;4959525;28;20038;-95
2022/11/04 03:44:23;;;;;;;15.98;7.65;;;;;;;2.51;62.29;99589.44;4958527;28;20126;-94
2022/11/04 03:46:53;;;;;;;15.85;7.72;;;;;;;2.93;61.54;99642.00;4957613;28;20043;-94
2022/11/04 03:49:21;;;;;;;14.52;7.75;;;;;;;2.73;60.71;99613.72;4972972;28;20142;-95
2022/11/04 03:51:48;;;;;;;18.30;7.82;;;;;;;2.61;61.80;99620.31;4956648;28;20042;-93
2022/11/04 03:54:15;;;;;;;17.92;8.65;;;;;;;2.62;61.59;99594.97;4972056;28;20050;-94
2022/11/04 03:57:05;;;;;;;16.90;8.75;;;;;;;2.65;61.94;99632.22;4979838;28;20077;-94
2022/11/04 03:59:49;;;;;;;17.55;8.70;;;;;;;2.18;62.85;99592.28;4943083;28;20038;-94
2022/11/04 04:02:24;;;;;;;17.92;8.60;;;;;;;2.81;62.62;99661.03;4942493;28;20500;-95
2022/11/04 04:05:00;;;;;;;15.32;8.35;;;;;;;2.44;62.73;99618.50;4958401;28;20160;-94
2022/11/04 04:07:39;;;;;;;17.98;8.98;;;;;;;2.49;62.62;99605.09;4943408;28;20093;-94
2022/11/04 04:10:38;;;;;;;14.65;8.95;;;;;;;2.82;62.49;99665.38;4936603;28;20050;-93
2022/11/04 04:13:28;;;;;;;15.65;8.70;;;;;;;2.39;62.51;99591.50;4946081;28;20061;-92
2022/11/04 04:16:08;;;;;;;15.40;8.60;;;;;;;3.02;61.81;99671.00;4939774;29;20074;-91
2022/11/04 04:18:52;;;;;;;16.08;8.60;;;;;;;2.51;61.99;99597.53;4940071;28;20704;-94
2022/11/04 04:21:24;;;;;;;16.83;8.98;;;;;;;2.86;62.37;99638.69;4946636;28;20039;-91
2022/11/04 04:29:26;;;;;;;19.13;9.10;;;;;;;3.02;61.67;99679.09;4959082;28;20039;-93
2022/11/04 04:31:56;;;;;;;25.08;9.13;;;;;;;2.46;61.71;99577.81;4958376;28;20802;-94
2022/11/04 04:34:26;;;;;;;21.25;10.02;;;;;;;2.57;61.71;99623.53;4926357;28;20054;-93
2022/11/04 04:37:07;;;;;;;25.58;9.77;;;;;;;2.80;61.69;99673.72;4938782;29;20568;-95
2022/11/04 04:45:39;;;;;;;16.88;8.73;;;;;;;2.51;62.11;99648.81;4960868;28;20045;-92
2022/11/04 04:48:10;;;;;;;18.98;10.00;;;;;;;2.05;62.12;99575.44;4945640;28;20046;-93
2022/11/04 04:50:41;;;;;;;19.80;9.02;;;;;;;2.63;61.95;99648.69;4926569;28;20090;-92
2022/11/04 04:53:11;;;;;;;18.23;9.23;;;;;;;2.33;61.83;99603.28;4958092;28;20042;-91
2022/11/04 04:55:44;;;;;;;24.23;11.23;;;;;;;2.71;62.45;99693.31;4913026;28;20039;-94
2022/11/04 04:58:10;;;;;;;19.38;9.35;;;;;;;2.38;62.34;99597.13;4930713;28;20039;-91
2022/11/04 05:00:36;;;;;;;23.98;9.05;;;;;;;2.55;61.85;99614.03;4930011;23;20083;-91
2022/11/04 05:03:02;;;;;;;20.92;9.05;;;;;;;2.33;62.36;99597.88;4913867;29;20039;-92
2022/11/04 05:05:29;;;;;;;18.67;8.52;;;;;;;2.61;62.38;99628.41;4918494;29;20036;-95
2022/11/04 05:08:02;;;;;;;19.40;9.93;;;;;;;2.50;62.06;99606.72;4934496;29;20035;-91
2022/11/04 05:10:28;;;;;;;15.88;9.68;;;;;;;2.81;62.24;99648.38;4950458;29;20062;-92
2022/11/04 05:15:39;;;;;;;16.73;9.45;;;;;;;2.76;61.56;99650.19;4958741;28;20043;-92
2022/11/04 05:18:05;;;;;;;18.88;9.93;;;;;;;2.74;62.10;99644.22;4943544;29;20485;-92
2022/11/04 05:20:33;;;;;;;24.00;10.00;;;;;;;2.66;62.09;99640.09;4926869;29;20462;-92
2022/11/04 05:22:59;;;;;;;16.23;9.15;;;;;;;2.75;62.84;99670.97;4950474;29;20047;-93
2022/11/04 05:25:25;;;;;;;16.88;9.05;;;;;;;2.74;62.51;99668.50;4938683;29;20054;-92
2022/11/04 05:27:51;;;;;;;23.50;9.20;;;;;;;2.48;62.39;99614.22;4922556;29;20051;-91
2022/11/04 05:30:17;;;;;;;16.73;9.18;;;;;;;2.71;62.47;99664.44;4923148;29;20035;-93
2022/11/04 05:32:51;;;;;;;21.38;9.23;;;;;;;2.54;62.36;99640.22;4938701;29;20047;-93
2022/11/04 05:35:22;;;;;;;19.33;9.88;;;;;;;2.96;62.32;99695.50;4928964;29;20095;-92
2022/11/04 05:37:49;;;;;;;19.98;9.93;;;;;;;2.52;62.21;99625.38;4908093;29;20043;-94
2022/11/04 05:40:15;;;;;;;25.85;9.32;;;;;;;2.87;61.99;99702.41;4939097;29;20043;-93
2022/11/04 05:42:41;;;;;;;22.52;10.10;;;;;;;2.54;61.86;99632.13;4954426;29;20099;-90
2022/11/04 05:45:08;;;;;;;28.88;12.23;;;;;;;2.57;62.21;99664.00;4937840;29;20102;-94
2022/11/04 05:47:34;;;;;;;22.52;11.77;;;;;;;2.52;62.18;99636.16;4936584;29;20039;-88
2022/11/04 05:50:00;;;;;;;29.30;10.57;;;;;;;2.58;62.49;99657.56;4923052;29;20036;-88
2022/11/04 05:52:26;;;;;;;23.80;11.20;;;;;;;2.57;62.48;99637.00;4921113;29;20043;-88
2022/11/04 05:54:52;;;;;;;25.40;11.05;;;;;;;2.93;61.97;99666.28;4939531;29;20055;-89
2022/11/04 05:57:24;;;;;;;23.92;11.10;;;;;;;2.85;61.03;99642.44;4939359;29;20043;-88
2022/11/04 05:59:50;;;;;;;22.52;10.45;;;;;;;2.84;60.62;99647.03;4939436;29;20123;-92
2022/11/04 06:02:17;;;;;;;21.02;10.43;;;;;;;2.93;61.47;99660.91;4954343;28;20505;-91
2022/11/04 06:04:43;;;;;;;27.00;10.50;;;;;;;3.05;61.16;99675.88;4937122;29;20044;-89
2022/11/04 06:07:09;;;;;;;22.00;9.98;;;;;;;3.19;61.17;99681.69;4921669;29;20048;-89
2022/11/04 06:09:37;;;;;;;22.52;9.95;;;;;;;3.08;60.71;99650.25;4936821;29;20386;-89
2022/11/04 06:12:09;;;;;;;24.65;11.35;;;;;;;3.14;60.73;99670.00;4953988;28;20044;-94
2022/11/04 06:14:35;;;;;;;27.50;11.35;;;;;;;3.18;61.06;99687.34;4938394;29;20051;-91
2022/11/04 06:17:02;;;;;;;28.43;11.57;;;;;;;3.14;60.87;99678.94;4968571;28;20043;-88
2022/11/04 06:19:28;;;;;;;27.15;10.77;;;;;;;3.19;61.08;99692.50;4957110;29;20071;-89
2022/11/04 06:21:54;;;;;;;25.77;12.15;;;;;;;2.92;60.70;99640.38;4959316;29;20047;-93
2022/11/04 06:24:20;;;;;;;25.08;10.88;;;;;;;3.47;59.69;99710.31;4950061;29;20055;-89
2022/11/04 06:26:48;;;;;;;42.60;13.65;;;;;;;3.17;59.59;99656.00;4947023;29;20043;-89
2022/11/04 06:29:17;;;;;;;40.08;13.57;;;;;;;2.88;60.65;99663.53;4923537;29;20036;-87
2022/11/04 06:31:43;;;;;;;42.03;12.50;;;;;;;2.89;60.97;99649.78;4938327;29;20035;-91
2022/11/04 06:34:09;;;;;;;28.52;12.10;;;;;;;3.07;60.44;99670.22;4939592;29;20044;-91
2022/11/04 06:36:36;;;;;;;24.85;11.10;;;;;;;3.05;59.53;99656.16;4925429;29;20705;-90
2022/11/04 06:39:04;;;;;;;22.95;9.18;;;;;;;3.41;59.69;99721.34;4964252;28;20122;-89
2022/11/04 06:41:30;;;;;;;33.80;11.40;;;;;;;3.23;60.02;99698.22;4944878;29;20039;-91
2022/11/04 06:43:56;;;;;;;29.70;8.93;;;;;;;3.39;59.51;99718.09;4927219;29;20047;-94
2022/11/04 06:46:30;;;;;;;32.67;9.45;;;;;;;2.96;60.28;99649.59;4941528;29;20146;-90
2022/11/04 06:48:56;;;;;;;37.17;9.52;;;;;;;3.13;59.92;99687.31;4942264;29;20047;-91
2022/11/04 06:51:24;;;;;;;18.67;8.50;;;;;;;3.21;60.59;99700.34;4941714;29;20126;-89
2022/11/04 06:53:50;;;;;;;21.70;8.63;;;;;;;3.13;60.70;99690.00;4928636;29;20043;-90
2022/11/04 06:56:16;;;;;;;22.02;8.55;;;;;;;3.27;60.22;99704.72;4920601;29;20044;-90
2022/11/04 06:58:45;;;;;;;28.60;9.45;;;;;;;3.28;59.78;99699.09;4925654;29;20035;-88
2022/11/04 07:01:12;;;;;;;24.42;9.00;;;;;;;3.14;60.46;99687.03;4952671;28;20107;-88
2022/11/04 07:03:38;;;;;;;25.33;9.88;;;;;;;3.34;59.85;99720.72;4937998;29;20039;-93
2022/11/04 07:06:08;;;;;;;28.15;11.77;;;;;;;3.12;59.61;99691.91;4922822;29;20067;-89
2022/11/04 07:08:35;;;;;;;17.58;8.85;;;;;;;3.25;59.66;99731.19;4941859;29;20049;-91
2022/11/04 07:11:02;;;;;;;25.75;8.88;;;;;;;3.03;60.06;99701.50;4939503;29;20036;-89
2022/11/04 07:13:28;;;;;;;16.98;8.85;;;;;;;2.93;60.07;99694.09;4906841;29;20077;-91
2022/11/04 07:15:54;;;;;;;34.67;10.00;;;;;;;2.78;60.62;99702.88;4922974;29;20138;-92
2022/11/04 07:18:20;;;;;;;28.55;9.55;;;;;;;2.59;61.54;99696.97;4922377;29;20106;-90
2022/11/04 07:20:47;;;;;;;42.58;10.43;;;;;;;2.51;61.68;99707.38;4937349;29;20418;-88
2022/11/04 07:23:13;;;;;;;42.55;10.80;;;;;;;2.70;61.96;99724.06;4937845;29;20051;-89
2022/11/04 07:25:39;;;;;;;76.70;10.82;;;;;;;2.84;61.45;99717.22;4905155;29;20086;-89
2022/11/04 07:28:05;;;;;;;35.08;9.45;;;;;;;2.84;61.56;99744.22;4937262;29;20044;-87
2022/11/04 07:30:31;;;;;;;35.05;9.05;;;;;;;2.37;61.42;99666.44;4951634;29;20520;-88
2022/11/04 07:32:57;;;;;;;41.58;8.57;;;;;;;2.58;62.04;99713.38;4952843;29;20095;-88
2022/11/04 07:35:23;;;;;;;45.88;11.80;;;;;;;2.87;61.95;99756.41;4933190;29;20038;-89
2022/11/04 07:37:49;;;;;;;50.00;11.07;;;;;;;2.79;61.71;99736.06;4933985;29;20043;-88
2022/11/04 07:40:16;;;;;;;46.65;10.70;;;;;;;2.79;61.86;99717.19;4917287;29;20138;-89
2022/11/04 07:42:42;;;;;;;47.47;11.13;;;;;;;2.57;62.29;99709.88;4918898;29;20048;-88
2022/11/04 07:45:16;;;;;;;52.65;11.43;;;;;;;2.71;62.01;99723.00;4915910;29;20179;-89
2022/11/04 07:47:42;;;;;;;69.00;11.43;;;;;;;3.03;61.42;99752.81;4899748;29;20059;-86
2022/11/04 07:50:08;;;;;;;56.17;10.13;;;;;;;2.88;61.42;99729.19;4915638;29;20048;-89
2022/11/04 07:52:35;;;;;;;33.83;8.52;;;;;;;2.71;61.17;99688.72;4915240;29;20146;-86
2022/11/04 07:55:01;;;;;;;43.65;9.63;;;;;;;2.97;62.04;99724.94;4933292;29;20191;-89
2022/11/04 07:57:28;;;;;;;48.72;8.93;;;;;;;3.04;61.04;99736.34;4934430;29;20426;-88
2022/11/04 07:59:54;;;;;;;49.85;9.70;;;;;;;3.04;61.63;99720.16;4918315;29;20060;-89
2022/11/04 08:02:22;;;;;;;36.45;8.30;;;;;;;2.98;61.43;99732.00;4950012;29;20059;-90
2022/11/04 08:04:50;;;;;;;39.60;9.95;;;;;;;2.96;61.68;99733.31;4935557;29;20051;-88
2022/11/04 08:07:16;;;;;;;;;;;;;;;3.13;61.73;99744.03;4936462;29;20135;-88
2022/11/04 08:09:42;;;;;;;31.77;9.48;;;;;;;3.27;60.71;99754.16;4934407;29;20078;-89
2022/11/04 08:12:09;;;;;;;31.10;8.30;;;;;;;3.35;60.84;99741.28;4935198;29;20055;-91
2022/11/04 08:14:35;;;;;;;39.17;10.10;;;;;;;3.25;60.12;99725.78;4935463;29;20075;-89
2022/11/04 08:17:01;;;;;;;22.27;8.02;;;;;;;3.27;60.07;99724.44;4937564;29;20054;-89
2022/11/04 08:19:28;;;;;;;42.90;10.40;;;;;;;3.35;60.06;99723.19;4935326;29;20055;-91
2022/11/04 08:21:55;;;;;;;33.47;10.05;;;;;;;3.10;59.91;99699.41;4936568;29;20067;-91
2022/11/04 08:24:21;;;;;;;27.75;7.47;;;;;;;3.33;59.58;99730.72;4935843;29;20062;-90
2022/11/04 08:26:47;;;;;;;31.33;8.95;;;;;;;3.08;59.77;99688.06;4922587;29;20047;-89
2022/11/04 08:29:13;;;;;;;25.67;8.60;;;;;;;3.20;59.82;99704.94;4934950;29;20146;-92
2022/11/04 08:31:41;;;;;;;35.17;7.95;;;;;;;3.13;59.86;99714.31;4935563;29;20040;-89
2022/11/04 08:34:08;;;;;;;23.17;8.02;;;;;;;3.17;60.07;99720.84;4934859;29;20553;-90
2022/11/04 08:36:37;;;;;;;29.13;8.18;;;;;;;2.97;60.27;99695.22;4935363;29;20502;-89
2022/11/04 08:39:06;;;;;;;36.53;9.55;;;;;;;2.89;60.51;99697.59;4918768;29;20184;-92
2022/11/04 08:41:33;;;;;;;38.78;8.02;;;;;;;3.27;60.57;99737.97;4920323;29;20123;-89
2022/11/04 08:44:02;;;;;;;26.23;8.10;;;;;;;2.99;60.68;99703.09;4934675;29;20086;-91
2022/11/04 08:46:33;;;;;;;34.20;8.98;;;;;;;3.23;61.36;99722.53;4934127;29;20036;-92
2022/11/04 08:48:59;;;;;;;40.00;8.85;;;;;;;3.30;62.13;99698.81;4934282;29;20050;-90
2022/11/04 08:51:28;;;;;;;47.05;7.85;;;;;;;3.63;59.62;99730.19;4934050;29;20039;-90
2022/11/04 08:53:55;;;;;;;42.63;8.13;;;;;;;3.53;60.28;99717.41;4934101;29;20055;-90
2022/11/04 08:56:25;;;;;;;32.07;7.40;;;;;;;3.76;60.99;99734.38;4934502;29;20044;-89
2022/11/04 08:58:52;;;;;;;36.65;8.80;;;;;;;3.67;60.53;99723.19;4934362;29;20177;-90
2022/11/04 09:01:20;;;;;;;26.95;9.60;;;;;;;3.81;59.25;99734.41;4935617;29;20056;-88
2022/11/04 09:03:46;;;;;;;45.60;8.93;;;;;;;3.72;59.10;99739.47;4936040;29;20047;-90
2022/11/04 09:06:44;;;;;;;26.85;8.02;;;;;;;3.60;59.26;99729.91;4922446;29;20044;-90
2022/11/04 09:09:14;;;;;;;22.58;6.18;;;;;;;3.39;59.81;99734.31;4903026;29;20056;-88
2022/11/04 09:11:43;;;;;;;29.25;7.22;;;;;;;3.20;60.44;99710.31;4935868;29;20043;-90
2022/11/04 09:14:09;;;;;;;20.73;6.70;;;;;;;3.30;60.51;99725.84;4920096;29;20048;-92
2022/11/04 09:16:37;;;;;;;13.80;7.22;;;;;;;3.20;61.32;99710.31;4934775;29;20071;-92
2022/11/04 09:19:03;;;;;;;18.80;6.95;;;;;;;3.33;60.46;99725.31;4933572;29;20040;-89
2022/11/04 09:21:30;;;;;;;18.50;7.68;;;;;;;3.30;60.18;99690.69;4917206;29;20144;-87
2022/11/04 09:23:56;;;;;;;22.98;7.85;;;;;;;3.20;60.21;99682.50;4948326;29;20098;-92
2022/11/04 09:26:24;;;;;;;19.85;7.00;;;;;;;3.20;60.21;99685.22;4934311;29;20039;-90
2022/11/04 09:28:54;;;;;;;19.27;7.13;;;;;;;3.11;61.03;99690.25;4934730;29;20040;-90
2022/11/04 09:31:21;;;;;;;26.33;6.63;;;;;;;3.46;61.65;99724.91;4916782;29;20042;-90
2022/11/04 09:33:47;;;;;;;15.35;6.72;;;;;;;3.55;61.58;99716.34;4932181;29;20425;-89
2022/11/04 09:36:15;;;;;;;25.83;7.70;;;;;;;3.43;60.39;99662.44;4931758;29;20039;-89
2022/11/04 09:38:42;;;;;;;17.80;6.88;;;;;;;3.40;60.19;99688.09;4931133;29;20134;-87
2022/11/04 09:41:18;;;;;;;;;;;;;;;3.85;60.10;99726.59;4915619;29;20036;-89
2022/11/04 09:43:57;;;;;;;28.95;12.02;;;;;;;3.92;59.91;99721.78;4910722;29;20443;-89
2022/11/04 09:46:23;;;;;;;23.40;10.43;;;;;;;3.79;59.02;99697.88;4939501;29;20159;-89
2022/11/04 09:48:55;;;;;;;32.25;16.33;;;;;;;3.84;59.07;99714.13;4915163;29;20448;-91
2022/11/04 09:51:25;;;;;;;34.88;15.38;;;;;;;3.61;60.05;99664.78;4914581;29;20038;-90
2022/11/04 09:53:59;;;;;;;36.47;12.82;;;;;;;3.86;59.41;99698.47;4930913;29;20048;-89
2022/11/04 09:56:34;;;;;;;47.15;16.83;;;;;;;3.91;59.51;99687.72;4931069;29;20493;-88
2022/11/04 09:59:03;;;;;;;29.30;12.25;;;;;;;3.73;59.12;99673.50;4946688;28;20039;-87
2022/11/04 10:01:45;;;;;;;46.75;12.90;;;;;;;3.98;59.05;99712.66;4949460;29;20138;-89
2022/11/04 10:04:33;;;;;;;37.65;13.23;;;;;;;4.01;59.70;99709.41;4934099;29;20055;-92
2022/11/04 10:07:15;;;;;;;29.20;11.15;;;;;;;3.90;59.44;99723.91;4933589;29;20039;-90
2022/11/04 10:10:07;;;;;;;27.50;9.88;;;;;;;3.91;59.95;99718.28;4949126;29;20409;-89
2022/11/04 10:13:04;;;;;;;23.58;10.43;;;;;;;3.81;59.53;99679.50;4934463;29;20043;-89
2022/11/04 10:15:43;;;;;;;26.10;10.90;;;;;;;4.05;59.64;99723.25;4948849;29;20043;-89
2022/11/04 10:18:42;;;;;;;21.17;10.85;;;;;;;3.87;60.06;99710.91;4917395;29;20050;-90
2022/11/04 10:21:20;;;;;;;20.38;9.27;;;;;;;3.65;60.36;99687.50;4902086;29;20624;-91
2022/11/04 10:24:06;;;;;;;24.73;9.10;;;;;;;3.85;60.31;99694.97;4916945;29;20040;-87
2022/11/04 10:26:43;;;;;;;17.52;8.70;;;;;;;3.92;59.94;99716.38;4916477;29;20058;-86
2022/11/04 10:29:24;;;;;;;27.58;9.68;;;;;;;3.92;59.77;99705.56;4932245;29;20048;-88
2022/11/04 10:31:53;;;;;;;18.10;9.10;;;;;;;3.82;59.50;99700.88;4912689;29;20043;-90
2022/11/04 10:34:36;;;;;;;28.48;9.20;;;;;;;4.05;59.80;99731.34;4916134;29;20066;-88
2022/11/04 10:37:03;;;;;;;27.27;9.60;;;;;;;3.86;59.64;99691.19;4931485;29;20075;-88
2022/11/04 10:39:34;;;;;;;29.98;10.75;;;;;;;3.96;60.15;99703.97;4930809;29;20071;-88
2022/11/04 10:42:02;;;;;;;26.38;10.43;;;;;;;4.10;59.52;99713.25;4948962;29;20099;-94
2022/11/04 10:44:32;;;;;;;20.38;9.68;;;;;;;3.90;59.78;99683.34;4938111;29;20036;-93
2022/11/04 10:47:01;;;;;;;24.90;10.45;;;;;;;4.06;60.36;99719.44;4941436;29;20067;-93
2022/11/04 10:50:06;;;;;;;20.95;9.88;;;;;;;3.96;59.64;99723.69;4941378;29;20076;-94
2022/11/04 10:52:36;;;;;;;22.95;9.70;;;;;;;3.62;60.22;99662.88;4890282;29;20055;-89
2022/11/04 10:55:16;;;;;;;28.98;10.18;;;;;;;3.69;60.08;99694.03;4884795;29;20076;-87
2022/11/04 10:57:44;;;;;;;25.10;10.93;;;;;;;3.71;61.20;99693.78;4909268;29;20060;-89
2022/11/04 11:00:36;;;;;;;22.80;11.40;;;;;;;3.56;60.95;99707.97;4892835;29;20062;-89
2022/11/04 11:03:20;;;;;;;21.77;9.80;;;;;;;3.43;61.46;99694.88;4893443;29;20052;-89
2022/11/04 11:05:48;;;;;;;21.05;9.90;;;;;;;3.53;61.16;99693.06;4892535;29;20111;-87
2022/11/04 11:08:28;;;;;;;;;;;;;;;3.59;61.92;99722.88;4909567;29;20088;-89
2022/11/04 11:10:55;;;;;;;25.30;10.80;;;;;;;3.47;62.04;99690.59;4908589;29;20089;-90
2022/11/04 11:13:33;;;;;;;31.75;12.13;;;;;;;3.57;61.35;99700.69;4891893;29;20052;-92
2022/11/04 11:16:33;;;;;;;23.65;10.85;;;;;;;3.42;62.26;99704.06;4876638;29;20515;-90
2022/11/04 11:19:11;;;;;;;26.42;11.63;;;;;;;3.69;61.95;99721.06;4872638;29;20048;-89
2022/11/04 11:21:49;;;;;;;31.00;11.93;;;;;;;3.85;61.93;99722.00;4877086;29;20052;-90
2022/11/04 11:24:22;;;;;;;27.35;11.80;;;;;;;3.92;60.85;99727.19;4889260;29;20504;-90
2022/11/04 11:26:51;;;;;;;24.63;11.75;;;;;;;3.56;61.69;99707.97;4928569;29;20130;-90
2022/11/04 11:29:24;;;;;;;26.25;12.07;;;;;;;3.51;61.38;99694.44;4911925;29;20464;-91
2022/11/04 11:31:52;;;;;;;38.67;12.15;;;;;;;3.66;61.97;99710.75;4928007;29;20553;-91
2022/11/04 11:34:30;;;;;;;25.40;11.68;;;;;;;3.84;61.46;99727.66;4926117;29;20433;-89
2022/11/04 11:36:57;;;;;;;30.38;13.10;;;;;;;3.97;61.17;99725.34;4926173;29;20522;-89
2022/11/04 11:39:27;;;;;;;;;;;;;;;4.02;60.72;99729.97;4910858;29;20055;-91
2022/11/04 11:42:10;;;;;;;29.55;13.32;;;;;;;3.92;61.62;99728.00;4927076;29;19929;-89
2022/11/04 11:45:09;;;;;;;31.17;11.90;;;;;;;3.93;61.05;99708.00;4915922;29;20047;-90
2022/11/04 11:47:40;;;;;;;28.35;12.55;;;;;;;4.09;60.81;99735.97;4934322;29;20051;-89
2022/11/04 11:50:16;;;;;;;35.90;12.57;;;;;;;4.17;60.89;99734.66;4919077;29;20050;-90
2022/11/04 11:52:45;;;;;;;27.55;12.20;;;;;;;3.92;60.46;99721.78;4934620;29;20039;-89
2022/11/04 11:55:34;;;;;;;56.90;13.80;;;;;;;3.93;60.85;99726.91;4934603;29;20051;-88
2022/11/04 11:58:20;;;;;;;46.17;14.98;;;;;;;3.75;61.28;99719.22;4934954;29;20131;-90
2022/11/04 12:01:03;;;;;;;79.53;15.68;;;;;;;3.63;61.65;99719.38;4934610;29;20060;-91
2022/11/04 12:03:39;;;;;;;63.58;15.80;;;;;;;3.75;61.85;99722.75;4934815;29;20052;-91
2022/11/04 12:06:54;;;;;;;51.97;14.55;;;;;;;4.05;61.26;99750.28;4903192;29;20051;-90
2022/11/04 12:09:24;;;;;;;45.33;14.23;;;;;;;4.00;61.16;99751.84;4812925;29;20049;-91
2022/11/04 12:12:15;;;;;;;52.72;15.25;;;;;;;4.04;60.99;99756.75;4842783;29;20144;-92
2022/11/04 12:14:56;;;;;;;55.97;15.27;;;;;;;4.07;60.50;99756.25;4842700;29;20102;-90
2022/11/04 12:17:51;;;;;;;34.58;13.73;;;;;;;3.82;61.29;99738.75;4842574;29;20045;-91
2022/11/04 12:20:38;;;;;;;49.75;15.10;;;;;;;4.00;60.86;99757.28;4842736;29;20061;-88
2022/11/04 12:23:07;;;;;;;47.25;15.25;;;;;;;3.92;61.43;99755.06;4849269;29;20174;-92
2022/11/04 12:25:46;;;;;;;41.67;15.43;;;;;;;3.97;61.24;99752.41;4817023;29;20061;-93
2022/11/04 12:28:33;;;;;;;46.92;14.18;;;;;;;4.00;61.17;99761.88;4847168;29;20054;-91